createdAt,value
2023-05-24T00:00:25.394Z,0.00
2023-05-24T00:01:25.378Z,0.00
2023-05-24T00:02:25.241Z,0.00
2023-05-24T00:03:25.362Z,0.00
2023-05-24T00:04:25.473Z,0.00
2023-05-24T00:05:25.151Z,0.00
2023-05-24T00:06:25.123Z,0.00
2023-05-24T00:07:25.137Z,0.00
2023-05-24T00:08:25.108Z,0.00
2023-05-24T00:09:25.114Z,0.00
2023-05-24T00:10:25.086Z,0.00
2023-05-24T00:11:25.091Z,0.00
2023-05-24T00:12:25.079Z,0.00
2023-05-24T00:13:25.054Z,0.00
2023-05-24T00:14:25.046Z,0.00
2023-05-24T00:15:25.040Z,0.00
2023-05-24T00:16:25.054Z,0.00
2023-05-24T00:17:25.024Z,0.00
2023-05-24T00:18:25.014Z,0.00
2023-05-24T00:19:25.058Z,0.00
2023-05-24T00:20:25.061Z,0.00
2023-05-24T00:21:24.989Z,0.00
2023-05-24T00:22:24.976Z,0.00
2023-05-24T00:23:24.963Z,0.00
2023-05-24T00:24:24.944Z,0.00
2023-05-24T00:25:24.938Z,0.00
2023-05-24T00:26:24.927Z,0.00
2023-05-24T00:27:24.919Z,0.00
2023-05-24T00:28:24.908Z,0.00
2023-05-24T00:29:24.920Z,0.00
2023-05-24T00:30:24.881Z,0.00
2023-05-24T00:31:24.982Z,0.00
2023-05-24T00:32:24.887Z,0.00
2023-05-24T00:33:24.853Z,0.00
2023-05-24T00:34:24.843Z,0.00
2023-05-24T00:35:24.859Z,0.00
2023-05-24T00:36:24.879Z,0.00
2023-05-24T00:37:24.900Z,0.00
2023-05-24T00:38:24.818Z,0.00
2023-05-24T00:39:24.796Z,0.00
2023-05-24T00:40:24.823Z,0.00
2023-05-24T00:41:24.780Z,0.00
2023-05-24T00:42:24.772Z,0.00
2023-05-24T00:43:24.757Z,0.00
2023-05-24T00:44:24.758Z,0.00
2023-05-24T00:45:24.804Z,0.00
2023-05-24T00:46:24.788Z,0.00
2023-05-24T00:47:24.740Z,0.00
2023-05-24T00:48:24.739Z,0.00
2023-05-24T00:49:24.702Z,0.00
2023-05-24T00:50:24.681Z,0.00
2023-05-24T00:51:24.724Z,0.00
2023-05-24T00:52:24.687Z,0.00
2023-05-24T00:53:24.655Z,0.00
2023-05-24T00:54:24.663Z,0.00
2023-05-24T00:55:24.634Z,0.00
2023-05-24T00:56:24.674Z,0.00
2023-05-24T00:57:24.662Z,0.00
2023-05-24T00:58:24.668Z,0.00
2023-05-24T00:59:24.623Z,0.00
2023-05-24T01:00:24.586Z,0.00
2023-05-24T01:01:24.588Z,0.00
2023-05-24T01:02:24.679Z,0.00
2023-05-24T01:03:24.699Z,0.00
2023-05-24T01:04:24.570Z,0.00
2023-05-24T01:05:24.593Z,0.00
2023-05-24T01:06:24.559Z,0.00
2023-05-24T01:07:24.571Z,0.00
2023-05-24T01:08:24.541Z,0.00
2023-05-24T01:09:24.502Z,0.00
2023-05-24T01:10:24.601Z,0.00
2023-05-24T01:11:24.502Z,0.00
2023-05-24T01:12:24.489Z,0.00
2023-05-24T01:13:24.453Z,0.00
2023-05-24T01:14:24.460Z,0.00
2023-05-24T01:15:24.474Z,0.00
2023-05-24T01:16:24.506Z,0.00
2023-05-24T01:17:24.514Z,0.00
2023-05-24T01:18:24.408Z,0.00
2023-05-24T01:19:24.422Z,0.00
2023-05-24T01:20:24.458Z,0.00
2023-05-24T01:21:24.430Z,0.00
2023-05-24T01:22:24.410Z,0.00
2023-05-24T01:23:24.400Z,0.00
2023-05-24T01:24:24.456Z,0.00
2023-05-24T01:25:24.487Z,0.00
2023-05-24T01:26:24.324Z,0.00
2023-05-24T01:27:24.359Z,0.00
2023-05-24T01:28:24.375Z,0.00
2023-05-24T01:29:24.354Z,0.00
2023-05-24T01:30:24.315Z,0.00
2023-05-24T01:31:24.347Z,0.00
2023-05-24T01:32:24.329Z,0.00
2023-05-24T01:33:24.286Z,0.00
2023-05-24T01:34:24.241Z,0.00
2023-05-24T01:35:24.281Z,0.00
2023-05-24T01:36:24.264Z,0.00
2023-05-24T01:37:24.300Z,0.00
2023-05-24T01:38:24.260Z,0.00
2023-05-24T01:39:24.336Z,0.00
2023-05-24T01:40:24.201Z,0.00
2023-05-24T01:41:24.198Z,0.00
2023-05-24T01:42:24.160Z,0.00
2023-05-24T01:43:24.198Z,0.00
2023-05-24T01:44:24.145Z,0.00
2023-05-24T01:45:24.224Z,0.00
2023-05-24T01:46:24.169Z,0.00
2023-05-24T01:47:24.176Z,0.00
2023-05-24T01:48:24.101Z,0.00
2023-05-24T01:49:24.102Z,0.00
2023-05-24T01:50:25.848Z,0.00
2023-05-24T01:51:24.122Z,0.00
2023-05-24T01:52:24.192Z,0.00
2023-05-24T01:53:24.062Z,0.00
2023-05-24T01:54:24.062Z,0.00
2023-05-24T01:55:24.058Z,0.00
2023-05-24T01:56:24.031Z,0.00
2023-05-24T01:57:24.040Z,0.00
2023-05-24T01:58:24.068Z,0.00
2023-05-24T01:59:23.992Z,0.00
2023-05-24T02:00:24.018Z,0.00
2023-05-24T02:01:24.023Z,0.00
2023-05-24T02:02:24.147Z,0.00
2023-05-24T02:03:24.039Z,0.00
2023-05-24T02:04:23.969Z,0.00
2023-05-24T02:05:24.166Z,0.00
2023-05-24T02:06:23.949Z,0.00
2023-05-24T02:07:23.950Z,0.00
2023-05-24T02:08:23.911Z,0.00
2023-05-24T02:09:23.898Z,0.00
2023-05-24T02:10:23.932Z,0.00
2023-05-24T02:11:23.928Z,0.00
2023-05-24T02:12:23.853Z,0.00
2023-05-24T02:13:23.871Z,0.00
2023-05-24T02:14:23.858Z,0.00
2023-05-24T02:15:23.841Z,0.00
2023-05-24T02:16:23.898Z,0.00
2023-05-24T02:17:23.862Z,0.00
2023-05-24T02:18:23.831Z,0.00
2023-05-24T02:19:23.827Z,0.00
2023-05-24T02:20:23.800Z,0.00
2023-05-24T02:21:23.764Z,0.00
2023-05-24T02:22:23.835Z,0.00
2023-05-24T02:23:23.764Z,0.00
2023-05-24T02:24:23.873Z,0.00
2023-05-24T02:25:23.751Z,0.00
2023-05-24T02:26:23.813Z,0.00
2023-05-24T02:27:24.047Z,0.00
2023-05-24T02:28:23.743Z,0.00
2023-05-24T02:29:23.746Z,0.00
2023-05-24T02:30:23.792Z,0.00
2023-05-24T02:31:23.764Z,0.00
2023-05-24T02:32:23.693Z,0.00
2023-05-24T02:33:23.670Z,0.00
2023-05-24T02:34:23.675Z,0.00
2023-05-24T02:35:23.665Z,0.00
2023-05-24T02:36:23.697Z,0.00
2023-05-24T02:37:23.650Z,0.00
2023-05-24T02:38:23.643Z,0.00
2023-05-24T02:39:23.665Z,0.00
2023-05-24T02:40:23.562Z,0.00
2023-05-24T02:41:23.576Z,0.00
2023-05-24T02:42:23.631Z,0.00
2023-05-24T02:43:23.598Z,0.00
2023-05-24T02:44:23.593Z,0.00
2023-05-24T02:45:23.540Z,0.00
2023-05-24T02:46:23.564Z,0.00
2023-05-24T02:47:23.603Z,4.00
2023-05-24T02:48:23.540Z,4.00
2023-05-24T02:49:23.546Z,0.00
2023-05-24T02:50:23.508Z,0.00
2023-05-24T02:51:23.466Z,4.00
2023-05-24T02:52:23.451Z,4.00
2023-05-24T02:53:23.456Z,4.00
2023-05-24T02:54:23.462Z,4.00
2023-05-24T02:55:23.445Z,4.00
2023-05-24T02:56:23.459Z,4.00
2023-05-24T02:57:23.412Z,4.00
2023-05-24T02:58:23.410Z,8.00
2023-05-24T02:59:23.512Z,4.00
2023-05-24T03:00:23.388Z,4.00
2023-05-24T03:01:23.461Z,8.00
2023-05-24T03:02:23.502Z,8.00
2023-05-24T03:03:23.404Z,12.00
2023-05-24T03:04:23.365Z,12.00
2023-05-24T03:05:23.388Z,12.00
2023-05-24T03:06:23.383Z,16.00
2023-05-24T03:07:23.326Z,16.00
2023-05-24T03:08:23.284Z,16.00
2023-05-24T03:09:23.298Z,20.00
2023-05-24T03:10:23.292Z,20.00
2023-05-24T03:11:23.297Z,24.00
2023-05-24T03:12:23.303Z,24.00
2023-05-24T03:13:23.382Z,28.00
2023-05-24T03:14:23.273Z,28.00
2023-05-24T03:15:23.235Z,32.00
2023-05-24T03:16:23.246Z,36.00
2023-05-24T03:17:23.224Z,36.00
2023-05-24T03:18:23.207Z,36.00
2023-05-24T03:19:23.177Z,40.00
2023-05-24T03:20:23.189Z,44.00
2023-05-24T03:21:23.228Z,44.00
2023-05-24T03:22:23.397Z,48.00
2023-05-24T03:23:23.153Z,48.00
2023-05-24T03:24:23.136Z,52.00
2023-05-24T03:25:23.128Z,52.00
2023-05-24T03:26:23.122Z,56.00
2023-05-24T03:27:23.092Z,60.00
2023-05-24T03:28:23.130Z,64.00
2023-05-24T03:29:23.105Z,68.00
2023-05-24T03:30:23.082Z,72.00
2023-05-24T03:31:23.216Z,76.00
2023-05-24T03:32:23.148Z,84.00
2023-05-24T03:33:23.110Z,92.00
2023-05-24T03:34:23.040Z,100.00
2023-05-24T03:35:23.002Z,108.00
2023-05-24T03:36:23.074Z,116.00
2023-05-24T03:37:23.094Z,124.00
2023-05-24T03:38:22.994Z,136.00
2023-05-24T03:39:23.084Z,144.00
2023-05-24T03:40:22.989Z,156.00
2023-05-24T03:41:23.078Z,164.00
2023-05-24T03:42:22.928Z,176.00
2023-05-24T03:43:22.942Z,192.00
2023-05-24T03:44:23.034Z,288.00
2023-05-24T03:45:34.677Z,324.00
2023-05-24T03:46:23.069Z,564.00
2023-05-24T03:47:23.000Z,868.00
2023-05-24T03:48:22.925Z,1052.00
2023-05-24T03:49:22.964Z,1048.00
2023-05-24T03:50:22.919Z,744.00
2023-05-24T03:51:22.862Z,384.00
2023-05-24T03:52:23.044Z,380.00
2023-05-24T03:53:23.420Z,396.00
2023-05-24T03:54:22.822Z,416.00
2023-05-24T03:55:22.807Z,388.00
2023-05-24T03:56:22.844Z,388.00
2023-05-24T03:57:22.865Z,412.00
2023-05-24T03:58:22.802Z,448.00
2023-05-24T03:59:22.801Z,464.00
2023-05-24T04:00:22.793Z,468.00
2023-05-24T04:01:33.331Z,472.00
2023-05-24T04:02:22.831Z,484.00
2023-05-24T04:03:22.827Z,496.00
2023-05-24T04:04:22.898Z,520.00
2023-05-24T04:05:22.705Z,520.00
2023-05-24T04:06:22.706Z,528.00
2023-05-24T04:07:22.690Z,536.00
2023-05-24T04:08:22.665Z,508.00
2023-05-24T04:09:22.675Z,516.00
2023-05-24T04:10:22.621Z,504.00
2023-05-24T04:11:22.622Z,504.00
2023-05-24T04:12:22.654Z,508.00
2023-05-24T04:13:22.602Z,512.00
2023-05-24T04:14:22.585Z,512.00
2023-05-24T04:15:22.565Z,524.00
2023-05-24T04:16:22.644Z,536.00
2023-05-24T04:17:22.724Z,556.00
2023-05-24T04:18:22.729Z,580.00
2023-05-24T04:19:22.546Z,600.00
2023-05-24T04:20:22.607Z,620.00
2023-05-24T04:21:22.516Z,640.00
2023-05-24T04:22:24.306Z,656.00
2023-05-24T04:23:22.696Z,664.00
2023-05-24T04:24:22.489Z,672.00
2023-05-24T04:25:22.469Z,688.00
2023-05-24T04:26:22.458Z,708.00
2023-05-24T04:27:22.485Z,732.00
2023-05-24T04:28:22.442Z,744.00
2023-05-24T04:29:22.431Z,756.00
2023-05-24T04:30:22.422Z,756.00
2023-05-24T04:31:22.434Z,768.00
2023-05-24T04:32:22.443Z,780.00
2023-05-24T04:33:22.384Z,804.00
2023-05-24T04:34:22.433Z,832.00
2023-05-24T04:35:22.388Z,868.00
2023-05-24T04:36:22.358Z,900.00
2023-05-24T04:37:22.339Z,928.00
2023-05-24T04:38:22.332Z,960.00
2023-05-24T04:39:22.334Z,996.00
2023-05-24T04:40:22.320Z,1032.00
2023-05-24T04:41:22.308Z,1080.00
2023-05-24T04:42:22.298Z,1136.00
2023-05-24T04:43:22.279Z,1176.00
2023-05-24T04:44:22.283Z,1228.00
2023-05-24T04:45:22.274Z,1280.00
2023-05-24T04:46:22.335Z,1336.00
2023-05-24T04:47:22.364Z,1440.00
2023-05-24T04:48:22.299Z,1524.00
2023-05-24T04:49:22.269Z,1584.00
2023-05-24T04:50:22.252Z,1652.00
2023-05-24T04:51:22.245Z,1744.00
2023-05-24T04:52:22.248Z,1816.00
2023-05-24T04:53:22.223Z,1816.00
2023-05-24T04:54:22.220Z,1856.00
2023-05-24T04:55:22.196Z,1924.00
2023-05-24T04:56:22.225Z,1992.00
2023-05-24T04:57:22.185Z,2056.00
2023-05-24T04:58:22.164Z,2080.00
2023-05-24T04:59:22.153Z,2052.00
2023-05-24T05:00:22.139Z,1928.00
2023-05-24T05:01:22.161Z,1864.00
2023-05-24T05:02:22.136Z,1828.00
2023-05-24T05:03:22.156Z,1820.00
2023-05-24T05:04:22.090Z,1820.00
2023-05-24T05:05:22.068Z,1836.00
2023-05-24T05:06:22.177Z,1872.00
2023-05-24T05:07:22.092Z,1864.00
2023-05-24T05:08:22.045Z,1876.00
2023-05-24T05:09:22.080Z,1892.00
2023-05-24T05:10:23.875Z,1912.00
2023-05-24T05:11:22.038Z,1920.00
2023-05-24T05:12:22.038Z,1912.00
2023-05-24T05:13:22.006Z,1900.00
2023-05-24T05:14:22.020Z,1896.00
2023-05-24T05:15:21.967Z,1892.00
2023-05-24T05:16:22.077Z,1900.00
2023-05-24T05:17:22.011Z,1900.00
2023-05-24T05:18:21.977Z,1856.00
2023-05-24T05:19:21.948Z,1816.00
2023-05-24T05:20:21.996Z,1796.00
2023-05-24T05:21:21.965Z,1804.00
2023-05-24T05:22:21.918Z,1820.00
2023-05-24T05:23:21.929Z,1864.00
2023-05-24T05:24:21.884Z,1908.00
2023-05-24T05:25:21.874Z,1976.00
2023-05-24T05:26:21.877Z,2072.00
2023-05-24T05:27:21.864Z,2168.00
2023-05-24T05:28:21.880Z,2188.00
2023-05-24T05:29:24.135Z,2240.00
2023-05-24T05:30:21.817Z,2352.00
2023-05-24T05:31:21.826Z,2564.00
2023-05-24T05:32:21.862Z,2664.00
2023-05-24T05:33:21.849Z,2684.00
2023-05-24T05:34:21.797Z,2660.00
2023-05-24T05:35:21.768Z,2604.00
2023-05-24T05:36:21.776Z,2576.00
2023-05-24T05:37:21.763Z,2512.00
2023-05-24T05:38:21.760Z,2432.00
2023-05-24T05:39:21.759Z,2412.00
2023-05-24T05:40:21.718Z,2436.00
2023-05-24T05:41:21.704Z,2444.00
2023-05-24T05:42:21.718Z,2392.00
2023-05-24T05:43:21.715Z,2412.00
2023-05-24T05:44:21.692Z,2468.00
2023-05-24T05:45:21.771Z,2620.00
2023-05-24T05:46:21.725Z,2676.00
2023-05-24T05:47:21.658Z,2676.00
2023-05-24T05:48:21.669Z,2760.00
2023-05-24T05:49:21.650Z,2860.00
2023-05-24T05:50:21.621Z,2868.00
2023-05-24T05:51:21.632Z,2964.00
2023-05-24T05:52:21.628Z,3100.00
2023-05-24T05:53:21.615Z,3228.00
2023-05-24T05:54:21.569Z,3428.00
2023-05-24T05:55:21.644Z,3700.00
2023-05-24T05:56:21.575Z,4148.00
2023-05-24T05:57:21.557Z,4660.00
2023-05-24T05:58:21.581Z,4584.00
2023-05-24T05:59:21.550Z,4488.00
2023-05-24T06:00:21.509Z,4596.00
2023-05-24T06:01:21.494Z,4712.00
2023-05-24T06:02:21.553Z,4700.00
2023-05-24T06:03:21.683Z,4692.00
2023-05-24T06:04:21.512Z,4588.00
2023-05-24T06:05:21.459Z,4264.00
2023-05-24T06:06:21.447Z,3932.00
2023-05-24T06:07:21.449Z,3800.00
2023-05-24T06:08:21.432Z,3628.00
2023-05-24T06:09:21.468Z,3496.00
2023-05-24T06:10:21.434Z,3460.00
2023-05-24T06:11:21.481Z,3312.00
2023-05-24T06:12:21.416Z,3144.00
2023-05-24T06:13:21.377Z,3000.00
2023-05-24T06:14:21.374Z,2904.00
2023-05-24T06:15:21.365Z,2836.00
2023-05-24T06:16:21.461Z,2928.00
2023-05-24T06:17:21.388Z,3036.00
2023-05-24T06:18:21.337Z,3216.00
2023-05-24T06:19:21.324Z,3460.00
2023-05-24T06:20:21.341Z,3832.00
2023-05-24T06:21:21.334Z,3528.00
2023-05-24T06:22:21.293Z,3568.00
2023-05-24T06:23:21.285Z,3592.00
2023-05-24T06:24:21.358Z,3976.00
2023-05-24T06:25:21.262Z,3908.00
2023-05-24T06:26:21.305Z,4104.00
2023-05-24T06:27:21.283Z,4292.00
2023-05-24T06:28:21.267Z,4624.00
2023-05-24T06:29:21.239Z,4708.00
2023-05-24T06:30:21.278Z,4592.00
2023-05-24T06:31:21.312Z,4720.00
2023-05-24T06:32:21.297Z,4812.00
2023-05-24T06:33:21.244Z,4816.00
2023-05-24T06:34:21.558Z,4620.00
2023-05-24T06:35:21.188Z,4572.00
2023-05-24T06:36:21.199Z,4668.00
2023-05-24T06:37:21.164Z,4588.00
2023-05-24T06:38:21.164Z,4840.00
2023-05-24T06:39:21.194Z,5032.00
2023-05-24T06:40:21.173Z,5360.00
2023-05-24T06:41:21.167Z,5904.00
2023-05-24T06:42:21.156Z,5456.00
2023-05-24T06:43:21.168Z,5828.00
2023-05-24T06:44:22.863Z,6268.00
2023-05-24T06:45:21.180Z,6592.00
2023-05-24T06:46:21.129Z,6552.00
2023-05-24T06:47:21.236Z,7068.00
2023-05-24T06:48:21.133Z,6972.00
2023-05-24T06:49:21.097Z,7252.00
2023-05-24T06:50:21.064Z,7288.00
2023-05-24T06:51:21.033Z,6924.00
2023-05-24T06:52:21.240Z,6904.00
2023-05-24T06:53:21.047Z,6748.00
2023-05-24T06:54:21.037Z,6780.00
2023-05-24T06:55:21.018Z,6584.00
2023-05-24T06:56:21.053Z,6512.00
2023-05-24T06:57:21.002Z,6616.00
2023-05-24T06:58:20.970Z,6624.00
2023-05-24T06:59:21.126Z,6584.00
2023-05-24T07:00:20.969Z,6472.00
2023-05-24T07:01:21.030Z,6492.00
2023-05-24T07:02:21.025Z,6416.00
2023-05-24T07:03:20.996Z,6244.00
2023-05-24T07:04:20.998Z,6028.00
2023-05-24T07:05:20.939Z,5960.00
2023-05-24T07:06:20.922Z,5792.00
2023-05-24T07:07:20.927Z,5784.00
2023-05-24T07:08:20.935Z,5712.00
2023-05-24T07:09:20.873Z,5676.00
2023-05-24T07:10:20.896Z,5652.00
2023-05-24T07:11:20.912Z,5676.00
2023-05-24T07:12:20.862Z,5716.00
2023-05-24T07:13:20.893Z,5876.00
2023-05-24T07:14:20.884Z,6168.00
2023-05-24T07:15:20.859Z,6360.00
2023-05-24T07:16:20.874Z,6448.00
2023-05-24T07:17:20.860Z,6616.00
2023-05-24T07:18:20.820Z,6636.00
2023-05-24T07:19:20.822Z,6620.00
2023-05-24T07:20:20.860Z,6508.00
2023-05-24T07:21:20.793Z,6596.00
2023-05-24T07:22:20.818Z,6684.00
2023-05-24T07:23:20.804Z,6740.00
2023-05-24T07:24:20.771Z,6616.00
2023-05-24T07:25:20.774Z,6432.00
2023-05-24T07:26:20.967Z,6268.00
2023-05-24T07:27:20.801Z,6180.00
2023-05-24T07:28:20.753Z,6132.00
2023-05-24T07:29:20.760Z,6144.00
2023-05-24T07:30:31.577Z,6056.00
2023-05-24T07:31:20.767Z,5964.00
2023-05-24T07:32:20.766Z,5944.00
2023-05-24T07:33:20.722Z,5968.00
2023-05-24T07:34:20.729Z,5744.00
2023-05-24T07:35:20.737Z,5600.00
2023-05-24T07:36:20.688Z,5484.00
2023-05-24T07:37:20.686Z,5428.00
2023-05-24T07:38:20.687Z,5452.00
2023-05-24T07:39:20.671Z,5440.00
2023-05-24T07:40:20.654Z,5352.00
2023-05-24T07:41:20.639Z,5268.00
2023-05-24T07:42:20.644Z,5240.00
2023-05-24T07:43:20.654Z,5232.00
2023-05-24T07:44:20.657Z,5164.00
2023-05-24T07:45:20.686Z,5132.00
2023-05-24T07:46:20.731Z,5152.00
2023-05-24T07:47:20.707Z,5236.00
2023-05-24T07:48:20.574Z,5244.00
2023-05-24T07:49:20.610Z,5220.00
2023-05-24T07:50:20.552Z,5144.00
2023-05-24T07:51:20.549Z,5064.00
2023-05-24T07:52:20.583Z,4936.00
2023-05-24T07:53:20.537Z,4844.00
2023-05-24T07:54:20.544Z,4756.00
2023-05-24T07:55:20.601Z,4668.00
2023-05-24T07:56:20.532Z,4584.00
2023-05-24T07:57:20.565Z,4584.00
2023-05-24T07:58:20.546Z,4832.00
2023-05-24T07:59:20.518Z,4968.00
2023-05-24T08:00:20.502Z,5056.00
2023-05-24T08:01:20.530Z,5548.00
2023-05-24T08:02:20.553Z,5832.00
2023-05-24T08:03:20.612Z,6276.00
2023-05-24T08:04:20.466Z,6360.00
2023-05-24T08:05:20.482Z,6100.00
2023-05-24T08:06:20.571Z,6388.00
2023-05-24T08:07:20.585Z,6292.00
2023-05-24T08:08:20.679Z,6296.00
2023-05-24T08:09:20.425Z,6276.00
2023-05-24T08:10:20.400Z,6244.00
2023-05-24T08:11:20.410Z,6376.00
2023-05-24T08:12:20.453Z,6356.00
2023-05-24T08:13:20.399Z,6276.00
2023-05-24T08:14:20.404Z,6284.00
2023-05-24T08:15:20.381Z,6240.00
2023-05-24T08:16:20.446Z,6224.00
2023-05-24T08:17:20.375Z,6264.00
2023-05-24T08:18:20.362Z,6268.00
2023-05-24T08:19:20.378Z,6304.00
2023-05-24T08:20:20.399Z,6360.00
2023-05-24T08:21:20.319Z,6396.00
2023-05-24T08:22:20.350Z,6356.00
2023-05-24T08:23:20.345Z,6364.00
2023-05-24T08:24:20.288Z,6384.00
2023-05-24T08:25:20.365Z,6436.00
2023-05-24T08:26:20.306Z,6384.00
2023-05-24T08:27:20.305Z,6364.00
2023-05-24T08:28:20.320Z,6356.00
2023-05-24T08:29:20.271Z,6320.00
2023-05-24T08:30:20.304Z,6372.00
2023-05-24T08:31:20.355Z,6420.00
2023-05-24T08:32:20.274Z,6588.00
2023-05-24T08:33:20.363Z,6824.00
2023-05-24T08:34:20.295Z,6944.00
2023-05-24T08:35:21.878Z,7148.00
2023-05-24T08:36:20.308Z,7344.00
2023-05-24T08:37:20.254Z,7616.00
2023-05-24T08:38:20.318Z,8024.00
2023-05-24T08:39:20.256Z,8164.00
2023-05-24T08:40:20.234Z,8664.00
2023-05-24T08:41:20.158Z,8396.00
2023-05-24T08:42:20.139Z,8548.00
2023-05-24T08:43:20.177Z,8372.00
2023-05-24T08:44:20.129Z,8544.00
2023-05-24T08:45:20.137Z,8364.00
2023-05-24T08:46:20.170Z,8320.00
2023-05-24T08:47:20.142Z,8384.00
2023-05-24T08:48:20.156Z,8480.00
2023-05-24T08:49:20.111Z,8404.00
2023-05-24T08:50:20.172Z,8464.00
2023-05-24T08:51:20.199Z,8980.00
2023-05-24T08:52:20.143Z,8800.00
2023-05-24T08:53:20.112Z,8728.00
2023-05-24T08:54:20.241Z,8836.00
2023-05-24T08:55:20.111Z,8656.00
2023-05-24T08:56:20.084Z,8848.00
2023-05-24T08:57:20.074Z,9120.00
2023-05-24T08:58:20.078Z,9068.00
2023-05-24T08:59:20.052Z,9032.00
2023-05-24T09:00:20.118Z,9280.00
2023-05-24T09:01:20.055Z,8812.00
2023-05-24T09:02:20.012Z,8284.00
2023-05-24T09:03:20.120Z,8072.00
2023-05-24T09:04:20.020Z,7788.00
2023-05-24T09:05:19.995Z,8184.00
2023-05-24T09:06:20.028Z,8284.00
2023-05-24T09:07:20.069Z,8596.00
2023-05-24T09:08:20.047Z,8192.00
2023-05-24T09:09:20.083Z,8952.00
2023-05-24T09:10:19.976Z,9380.00
2023-05-24T09:11:19.973Z,9288.00
2023-05-24T09:12:32.402Z,8952.00
2023-05-24T09:13:20.009Z,8824.00
2023-05-24T09:14:19.957Z,8776.00
2023-05-24T09:15:19.923Z,7412.00
2023-05-24T09:16:20.003Z,7280.00
2023-05-24T09:17:19.945Z,7028.00
2023-05-24T09:18:19.990Z,7956.00
2023-05-24T09:19:19.944Z,6988.00
2023-05-24T09:20:19.925Z,7516.00
2023-05-24T09:21:19.886Z,7524.00
2023-05-24T09:22:19.897Z,7060.00
2023-05-24T09:23:20.064Z,7100.00
2023-05-24T09:24:19.869Z,7020.00
2023-05-24T09:25:19.867Z,7584.00
2023-05-24T09:26:19.849Z,6920.00
2023-05-24T09:27:19.852Z,7448.00
2023-05-24T09:28:19.849Z,7604.00
2023-05-24T09:29:19.853Z,8700.00
2023-05-24T09:30:19.817Z,8772.00
2023-05-24T09:31:19.879Z,9120.00
2023-05-24T09:32:19.848Z,9424.00
2023-05-24T09:33:19.856Z,9532.00
2023-05-24T09:34:19.901Z,8284.00
2023-05-24T09:35:19.824Z,9116.00
2023-05-24T09:36:19.906Z,9560.00
2023-05-24T09:37:19.816Z,9472.00
2023-05-24T09:38:19.781Z,9064.00
2023-05-24T09:39:19.826Z,9352.00
2023-05-24T09:40:19.780Z,9268.00
2023-05-24T09:41:19.740Z,9168.00
2023-05-24T09:42:19.803Z,9184.00
2023-05-24T09:43:19.751Z,8124.00
2023-05-24T09:44:19.752Z,8364.00
2023-05-24T09:45:19.787Z,8300.00
2023-05-24T09:46:19.851Z,8400.00
2023-05-24T09:47:20.017Z,9300.00
2023-05-24T09:48:19.745Z,8420.00
2023-05-24T09:49:19.743Z,8720.00
2023-05-24T09:50:19.764Z,8488.00
2023-05-24T09:51:19.799Z,8492.00
2023-05-24T09:52:19.720Z,8320.00
2023-05-24T09:53:19.753Z,8212.00
2023-05-24T09:54:19.722Z,8192.00
2023-05-24T09:55:19.765Z,7644.00
2023-05-24T09:56:19.806Z,7052.00
2023-05-24T09:57:19.697Z,7000.00
2023-05-24T09:58:19.684Z,6940.00
2023-05-24T09:59:19.670Z,6796.00
2023-05-24T10:00:19.636Z,6868.00
2023-05-24T10:01:19.723Z,7672.00
2023-05-24T10:02:19.689Z,7652.00
2023-05-24T10:03:19.756Z,7696.00
2023-05-24T10:04:19.772Z,7656.00
2023-05-24T10:05:19.621Z,7612.00
2023-05-24T10:06:19.680Z,6792.00
2023-05-24T10:07:19.655Z,7632.00
2023-05-24T10:08:19.617Z,7736.00
2023-05-24T10:09:19.605Z,7876.00
2023-05-24T10:10:19.600Z,7556.00
2023-05-24T10:11:19.615Z,6656.00
2023-05-24T10:12:19.605Z,6868.00
2023-05-24T10:13:19.594Z,6848.00
2023-05-24T10:14:19.566Z,6472.00
2023-05-24T10:15:19.592Z,6632.00
2023-05-24T10:16:19.629Z,5972.00
2023-05-24T10:17:19.547Z,6604.00
2023-05-24T10:18:19.700Z,6676.00
2023-05-24T10:19:19.573Z,6616.00
2023-05-24T10:20:19.635Z,5880.00
2023-05-24T10:21:19.576Z,5576.00
2023-05-24T10:22:19.536Z,5572.00
2023-05-24T10:23:19.505Z,6636.00
2023-05-24T10:24:19.546Z,6764.00
2023-05-24T10:25:19.637Z,6988.00
2023-05-24T10:26:19.539Z,7204.00
2023-05-24T10:27:19.652Z,7336.00
2023-05-24T10:28:19.486Z,7428.00
2023-05-24T10:29:19.469Z,7396.00
2023-05-24T10:30:19.509Z,6584.00
2023-05-24T10:31:19.517Z,6156.00
2023-05-24T10:32:19.512Z,6096.00
2023-05-24T10:33:19.486Z,6076.00
2023-05-24T10:34:19.466Z,5800.00
2023-05-24T10:35:19.462Z,6192.00
2023-05-24T10:36:19.501Z,6752.00
2023-05-24T10:37:19.476Z,6692.00
2023-05-24T10:38:19.449Z,5484.00
2023-05-24T10:39:19.449Z,5288.00
2023-05-24T10:40:19.440Z,5084.00
2023-05-24T10:41:19.454Z,5016.00
2023-05-24T10:42:19.429Z,4880.00
2023-05-24T10:43:19.443Z,4888.00
2023-05-24T10:44:19.405Z,5008.00
2023-05-24T10:45:19.390Z,4964.00
2023-05-24T10:46:19.467Z,4936.00
2023-05-24T10:47:19.384Z,5076.00
2023-05-24T10:48:19.417Z,5064.00
2023-05-24T10:49:19.365Z,5068.00
2023-05-24T10:50:19.348Z,5104.00
2023-05-24T10:51:19.374Z,5040.00
2023-05-24T10:52:19.341Z,4904.00
2023-05-24T10:53:19.383Z,4844.00
2023-05-24T10:54:19.355Z,4848.00
2023-05-24T10:55:19.342Z,4912.00
2023-05-24T10:56:19.350Z,5024.00
2023-05-24T10:57:19.325Z,5112.00
2023-05-24T10:58:19.299Z,5244.00
2023-05-24T10:59:19.364Z,5300.00
2023-05-24T11:00:33.284Z,5352.00
2023-05-24T11:01:19.338Z,5180.00
2023-05-24T11:02:19.444Z,5192.00
2023-05-24T11:03:19.288Z,5036.00
2023-05-24T11:04:19.295Z,4960.00
2023-05-24T11:05:19.396Z,4872.00
2023-05-24T11:06:19.258Z,4832.00
2023-05-24T11:07:19.357Z,5048.00
2023-05-24T11:08:19.383Z,6468.00
2023-05-24T11:09:19.247Z,6432.00
2023-05-24T11:10:19.238Z,6336.00
2023-05-24T11:11:26.674Z,6384.00
2023-05-24T11:12:19.347Z,6448.00
2023-05-24T11:13:19.259Z,6448.00
2023-05-24T11:14:19.250Z,6488.00
2023-05-24T11:15:19.298Z,6488.00
2023-05-24T11:16:19.227Z,6436.00
2023-05-24T11:17:19.239Z,6424.00
2023-05-24T11:18:19.391Z,6432.00
2023-05-24T11:19:19.247Z,6188.00
2023-05-24T11:20:19.321Z,4984.00
2023-05-24T11:21:19.231Z,4804.00
2023-05-24T11:22:19.200Z,4800.00
2023-05-24T11:23:19.160Z,4832.00
2023-05-24T11:24:19.181Z,4964.00
2023-05-24T11:25:19.246Z,5124.00
2023-05-24T11:26:19.165Z,6484.00
2023-05-24T11:27:19.176Z,6704.00
2023-05-24T11:28:19.344Z,6720.00
2023-05-24T11:29:19.194Z,6672.00
2023-05-24T11:30:19.178Z,6664.00
2023-05-24T11:31:19.285Z,6652.00
2023-05-24T11:32:19.370Z,6676.00
2023-05-24T11:33:19.126Z,6704.00
2023-05-24T11:34:19.146Z,6660.00
2023-05-24T11:35:19.113Z,6516.00
2023-05-24T11:36:19.077Z,6420.00
2023-05-24T11:37:19.174Z,6448.00
2023-05-24T11:38:19.080Z,6528.00
2023-05-24T11:39:19.089Z,6608.00
2023-05-24T11:40:19.061Z,6576.00
2023-05-24T11:41:19.096Z,6488.00
2023-05-24T11:42:19.058Z,6452.00
2023-05-24T11:43:19.048Z,6340.00
2023-05-24T11:44:19.035Z,6100.00
2023-05-24T11:45:19.052Z,4632.00
2023-05-24T11:46:19.048Z,4620.00
2023-05-24T11:47:19.055Z,4364.00
2023-05-24T11:48:19.016Z,4244.00
2023-05-24T11:49:19.022Z,4324.00
2023-05-24T11:50:19.002Z,4436.00
2023-05-24T11:51:19.066Z,4556.00
2023-05-24T11:52:19.043Z,4624.00
2023-05-24T11:53:19.014Z,4688.00
2023-05-24T11:54:19.028Z,4740.00
2023-05-24T11:55:19.000Z,4852.00
2023-05-24T11:56:19.010Z,4916.00
2023-05-24T11:57:18.999Z,5080.00
2023-05-24T11:58:19.006Z,5044.00
2023-05-24T11:59:19.032Z,6020.00
2023-05-24T12:00:19.025Z,6100.00
2023-05-24T12:01:19.026Z,6012.00
2023-05-24T12:02:19.031Z,5984.00
2023-05-24T12:03:19.122Z,5196.00
2023-05-24T12:04:19.024Z,5932.00
2023-05-24T12:05:18.960Z,6196.00
2023-05-24T12:06:18.967Z,6164.00
2023-05-24T12:07:18.936Z,4744.00
2023-05-24T12:08:18.909Z,4584.00
2023-05-24T12:09:18.901Z,4516.00
2023-05-24T12:10:20.370Z,4492.00
2023-05-24T12:11:18.887Z,4400.00
2023-05-24T12:12:22.410Z,4232.00
2023-05-24T12:13:18.895Z,4132.00
2023-05-24T12:14:18.915Z,4168.00
2023-05-24T12:15:18.918Z,4920.00
2023-05-24T12:16:18.933Z,4232.00
2023-05-24T12:17:18.911Z,4368.00
2023-05-24T12:18:18.876Z,4132.00
2023-05-24T12:19:31.730Z,4092.00
2023-05-24T12:20:18.947Z,4868.00
2023-05-24T12:21:18.879Z,4680.00
2023-05-24T12:22:18.881Z,5628.00
2023-05-24T12:23:18.864Z,5556.00
2023-05-24T12:24:18.883Z,4136.00
2023-05-24T12:25:18.817Z,4000.00
2023-05-24T12:26:18.815Z,3960.00